3AR8 weather

River Acres Airport
Heber Springs, Arkansas, United States

Public forecast

Using degrees Fahrenheit for public forecast. Weather courtesy of forecast.io.

METAR (pilot weather report)

Closest report is Searcy Municipal Airport, 19.2 nm (35.6 km) SE. Retrieved 2019/07/20 18:56 UTC (41 minutes ago):

KSRC 201856Z AUTO VRB04KT 10SM SCT038 33/25 A2997 RMK AO2 SLP149 T03330250

TAF (pilot weather forecast)

Closest forecast is Little Rock Air Force Base, 34.6 nm (64.0 km) SSW. Retrieved 2019/07/20 15:27 UTC (4 hours ago):

TAF KLRF 201500Z 2015/2121 VRB06KT 9999 FEW030 QNH2998INS BECMG 2016/2017 21012KT 9999 SCT050 QNH2989INS BECMG 2100/2101 VRB06KT 9999 FEW035 QNH2988INS BECMG 2113/2114 22009KT 9999 FEW045 QNH2991INS TX35/2021Z TN25/2111Z